createdAt,value
2023-02-23T00:01:54.224Z,12.00
2023-02-23T00:04:21.581Z,11.90
2023-02-23T00:06:48.396Z,11.90
2023-02-23T00:09:24.543Z,11.80
2023-02-23T00:11:53.457Z,11.90
2023-02-23T00:14:20.459Z,12.00
2023-02-23T00:16:47.602Z,11.90
2023-02-23T00:19:14.407Z,11.90
2023-02-23T00:21:41.890Z,11.90
2023-02-23T00:24:11.355Z,11.80
2023-02-23T00:26:39.803Z,11.90
2023-02-23T00:29:10.963Z,11.90
2023-02-23T00:31:38.693Z,11.80
2023-02-23T00:34:07.407Z,11.90
2023-02-23T00:36:35.679Z,11.90
2023-02-23T00:39:18.549Z,11.90
2023-02-23T00:41:46.608Z,11.90
2023-02-23T00:44:15.366Z,11.80
2023-02-23T00:46:43.733Z,11.80
2023-02-23T00:49:12.871Z,11.80
2023-02-23T00:51:39.710Z,11.90
2023-02-23T00:54:07.792Z,11.80
2023-02-23T00:56:34.979Z,11.80
2023-02-23T00:59:01.954Z,11.80
2023-02-23T01:01:29.095Z,11.70
2023-02-23T01:03:55.976Z,11.70
2023-02-23T01:06:23.159Z,11.80
2023-02-23T01:08:52.122Z,11.80
2023-02-23T01:11:21.605Z,11.80
2023-02-23T01:13:51.466Z,11.80
2023-02-23T01:16:20.388Z,11.80
2023-02-23T01:18:48.884Z,11.80
2023-02-23T01:21:37.533Z,11.90
2023-02-23T01:24:05.495Z,11.80
2023-02-23T01:26:35.258Z,11.80
2023-02-23T01:29:11.650Z,11.80
2023-02-23T01:31:41.499Z,11.70
2023-02-23T01:34:11.814Z,11.80
2023-02-23T01:36:41.117Z,11.80
2023-02-23T01:39:14.447Z,11.80
2023-02-23T01:41:42.412Z,11.80
2023-02-23T01:44:31.864Z,11.80
2023-02-23T01:46:58.678Z,11.80
2023-02-23T01:49:30.695Z,11.80
2023-02-23T01:52:06.748Z,11.90
2023-02-23T01:54:43.345Z,11.80
2023-02-23T01:57:14.472Z,11.80
2023-02-23T01:59:45.487Z,11.90
2023-02-23T02:02:13.713Z,11.90
2023-02-23T02:04:45.335Z,11.90
2023-02-23T02:07:28.201Z,11.90
2023-02-23T02:10:22.185Z,11.80
2023-02-23T02:12:56.197Z,11.60
2023-02-23T02:15:28.239Z,11.70
2023-02-23T02:18:23.682Z,11.70
2023-02-23T02:21:31.097Z,11.80
2023-02-23T02:24:33.643Z,11.70
2023-02-23T02:27:06.245Z,11.70
2023-02-23T02:29:47.641Z,11.70
2023-02-23T02:32:39.387Z,11.70
2023-02-23T02:35:54.124Z,11.60
2023-02-23T02:38:24.259Z,11.70
2023-02-23T02:41:05.495Z,11.60
2023-02-23T02:43:42.883Z,11.60
2023-02-23T02:46:19.689Z,11.60
2023-02-23T02:49:13.440Z,11.60
2023-02-23T02:51:49.281Z,11.50
2023-02-23T02:54:40.568Z,11.60
2023-02-23T02:57:09.395Z,11.60
2023-02-23T03:00:06.754Z,11.60
2023-02-23T03:02:55.643Z,11.60
2023-02-23T03:05:46.433Z,11.60
2023-02-23T03:08:39.256Z,11.60
2023-02-23T03:11:26.991Z,11.50
2023-02-23T03:14:21.134Z,11.40
2023-02-23T03:17:21.641Z,11.50
2023-02-23T03:20:15.808Z,11.50
2023-02-23T03:23:18.639Z,11.50
2023-02-23T03:26:15.190Z,11.40
2023-02-23T03:29:18.292Z,11.50
2023-02-23T03:32:13.548Z,11.50
2023-02-23T03:35:05.346Z,11.40
2023-02-23T03:38:00.328Z,11.50
2023-02-23T03:40:51.542Z,11.50
2023-02-23T03:43:46.744Z,11.50
2023-02-23T03:46:35.276Z,11.50
2023-02-23T03:49:24.822Z,11.50
2023-02-23T03:52:17.214Z,11.50
2023-02-23T03:55:13.141Z,11.40
2023-02-23T03:58:00.845Z,11.40
2023-02-23T04:00:53.412Z,11.40
2023-02-23T04:03:40.369Z,11.50
2023-02-23T04:06:29.745Z,11.60
2023-02-23T04:09:18.288Z,11.60
2023-02-23T04:12:17.690Z,11.70
2023-02-23T04:14:54.710Z,11.50
2023-02-23T04:17:25.395Z,11.60
2023-02-23T04:19:53.875Z,11.50
2023-02-23T04:22:21.581Z,11.50
2023-02-23T04:24:49.108Z,11.50
2023-02-23T04:27:16.187Z,11.50
2023-02-23T04:29:43.524Z,11.40
2023-02-23T04:32:15.501Z,11.40
2023-02-23T04:34:43.583Z,11.50
2023-02-23T04:37:12.167Z,11.50
2023-02-23T04:39:39.043Z,11.50
2023-02-23T04:42:05.846Z,11.50
2023-02-23T04:44:32.576Z,11.50
2023-02-23T04:46:59.348Z,11.60
2023-02-23T04:49:26.209Z,11.60
2023-02-23T04:51:52.920Z,11.40
2023-02-23T04:54:19.621Z,11.40
2023-02-23T04:56:46.387Z,11.50
2023-02-23T04:59:13.351Z,11.50
2023-02-23T05:01:40.065Z,11.50
2023-02-23T05:04:06.830Z,11.50
2023-02-23T05:06:34.292Z,11.50
2023-02-23T05:09:01.773Z,11.60
2023-02-23T05:11:28.833Z,11.50
2023-02-23T05:13:56.454Z,11.50
2023-02-23T05:16:23.577Z,11.50
2023-02-23T05:18:50.632Z,11.50
2023-02-23T05:21:17.790Z,11.40
2023-02-23T05:23:45.141Z,11.50
2023-02-23T05:26:13.308Z,11.50
2023-02-23T05:28:41.988Z,11.40
2023-02-23T05:31:09.683Z,11.40
2023-02-23T05:33:42.904Z,11.30
2023-02-23T05:36:12.236Z,11.20
2023-02-23T05:38:39.735Z,11.20
2023-02-23T05:41:11.248Z,11.20
2023-02-23T05:43:38.344Z,11.30
2023-02-23T05:46:10.316Z,11.40
2023-02-23T05:48:37.842Z,11.30
2023-02-23T05:51:12.914Z,11.20
2023-02-23T05:53:40.268Z,11.10
2023-02-23T05:56:08.574Z,11.10
2023-02-23T05:58:35.409Z,11.00
2023-02-23T06:01:02.171Z,11.00
2023-02-23T06:03:28.896Z,11.00
2023-02-23T06:05:58.604Z,11.00
2023-02-23T06:08:26.597Z,11.10
2023-02-23T06:10:53.335Z,11.00
2023-02-23T06:13:21.340Z,11.00
2023-02-23T06:15:49.514Z,11.00
2023-02-23T06:18:17.525Z,11.00
2023-02-23T06:20:45.790Z,11.10
2023-02-23T06:23:13.043Z,11.10
2023-02-23T06:25:40.809Z,11.20
2023-02-23T06:28:08.905Z,11.20
2023-02-23T06:30:36.413Z,11.20
2023-02-23T06:33:03.599Z,11.20
2023-02-23T06:35:30.292Z,11.20
2023-02-23T06:37:57.212Z,11.10
2023-02-23T06:40:24.276Z,11.10
2023-02-23T06:42:51.519Z,11.10
2023-02-23T06:45:19.329Z,11.10
2023-02-23T06:47:47.158Z,11.20
2023-02-23T06:50:15.090Z,11.20
2023-02-23T06:52:42.142Z,11.20
2023-02-23T06:55:10.484Z,11.20
2023-02-23T06:57:38.951Z,11.40
2023-02-23T07:00:06.217Z,11.40
2023-02-23T07:02:33.016Z,11.30
2023-02-23T07:04:59.760Z,11.30
2023-02-23T07:07:26.495Z,11.40
2023-02-23T07:09:53.290Z,11.30
2023-02-23T07:12:21.058Z,11.40
2023-02-23T07:14:48.020Z,11.40
2023-02-23T07:17:14.700Z,11.40
2023-02-23T07:19:41.432Z,11.40
2023-02-23T07:22:08.152Z,11.50
2023-02-23T07:24:34.938Z,11.60
2023-02-23T07:27:01.781Z,11.70
2023-02-23T07:29:28.691Z,11.80
2023-02-23T07:31:55.687Z,11.90
2023-02-23T07:34:22.565Z,12.00
2023-02-23T07:36:49.349Z,12.00
2023-02-23T07:39:16.241Z,11.90
2023-02-23T07:41:42.929Z,11.90
2023-02-23T07:44:09.724Z,12.00
2023-02-23T07:46:36.473Z,12.10
2023-02-23T07:49:03.392Z,12.10
2023-02-23T07:51:30.164Z,12.10
2023-02-23T07:53:56.893Z,12.20
2023-02-23T07:56:23.589Z,12.10
2023-02-23T07:58:50.274Z,12.20
2023-02-23T08:01:17.231Z,12.20
2023-02-23T08:03:49.537Z,12.20
2023-02-23T08:06:18.241Z,12.30
2023-02-23T08:08:45.262Z,12.20
2023-02-23T08:11:12.038Z,12.30
2023-02-23T08:13:39.032Z,12.40
2023-02-23T08:16:06.063Z,12.50
2023-02-23T08:18:33.251Z,12.60
2023-02-23T08:21:02.073Z,12.60
2023-02-23T08:23:33.195Z,12.70
2023-02-23T08:26:00.744Z,12.70
2023-02-23T08:28:28.871Z,12.80
2023-02-23T08:30:55.799Z,12.80
2023-02-23T08:33:23.136Z,12.90
2023-02-23T08:35:50.161Z,12.90
2023-02-23T08:38:18.328Z,12.90
2023-02-23T08:40:45.332Z,12.90
2023-02-23T08:43:12.195Z,12.90
2023-02-23T08:45:39.640Z,13.00
2023-02-23T08:48:07.653Z,13.20
2023-02-23T08:50:34.681Z,13.30
2023-02-23T08:53:01.460Z,13.20
2023-02-23T08:55:28.224Z,13.20
2023-02-23T08:57:54.947Z,13.30
2023-02-23T09:00:22.084Z,13.40
2023-02-23T09:02:48.912Z,13.40
2023-02-23T09:05:16.517Z,13.40
2023-02-23T09:07:47.197Z,13.50
2023-02-23T09:10:16.509Z,13.40
2023-02-23T09:12:43.586Z,13.50
2023-02-23T09:15:10.802Z,13.50
2023-02-23T09:17:38.006Z,13.50
2023-02-23T09:20:06.329Z,13.60
2023-02-23T09:22:36.760Z,13.80
2023-02-23T09:25:04.855Z,13.90
2023-02-23T09:27:31.626Z,14.00
2023-02-23T09:29:58.346Z,14.10
2023-02-23T09:32:25.195Z,14.20
2023-02-23T09:34:52.706Z,14.20
2023-02-23T09:37:19.392Z,14.30
2023-02-23T09:39:46.200Z,14.40
2023-02-23T09:42:49.250Z,14.40
2023-02-23T09:45:24.101Z,14.30
2023-02-23T09:48:03.175Z,14.20
2023-02-23T09:50:31.546Z,14.20
2023-02-23T09:53:03.941Z,14.30
2023-02-23T09:55:32.677Z,14.60
2023-02-23T09:58:16.155Z,14.70
2023-02-23T10:00:51.611Z,14.70
2023-02-23T10:03:22.041Z,15.00
2023-02-23T10:05:54.625Z,15.30
2023-02-23T10:08:56.601Z,14.90
2023-02-23T10:12:07.385Z,14.80
2023-02-23T10:14:58.635Z,15.00
2023-02-23T10:17:55.493Z,15.10
2023-02-23T10:20:32.189Z,15.10
2023-02-23T10:23:05.654Z,15.20
2023-02-23T10:25:37.251Z,15.40
2023-02-23T10:28:04.271Z,15.60
2023-02-23T10:30:33.735Z,15.60
2023-02-23T10:33:36.732Z,15.80
2023-02-23T10:36:27.339Z,15.80
2023-02-23T10:38:54.050Z,15.80
2023-02-23T10:41:21.315Z,16.10
2023-02-23T10:43:48.331Z,16.30
2023-02-23T10:46:25.113Z,16.60
2023-02-23T10:48:55.885Z,16.90
2023-02-23T10:51:29.146Z,17.20
2023-02-23T10:54:01.190Z,17.30
2023-02-23T10:56:34.254Z,17.30
2023-02-23T10:59:01.737Z,17.40
2023-02-23T11:02:00.926Z,17.60
2023-02-23T11:04:34.868Z,17.50
2023-02-23T11:07:18.113Z,17.50
2023-02-23T11:09:47.778Z,17.30
2023-02-23T11:12:39.573Z,16.70
2023-02-23T11:15:32.034Z,16.30
2023-02-23T11:18:04.192Z,16.10
2023-02-23T11:20:36.204Z,15.70
2023-02-23T11:23:14.678Z,15.60
2023-02-23T11:25:44.067Z,15.60
2023-02-23T11:28:22.521Z,15.70
2023-02-23T11:30:50.076Z,15.70
2023-02-23T11:33:19.877Z,15.80
2023-02-23T11:35:46.667Z,15.90
2023-02-23T11:38:27.266Z,15.90
2023-02-23T11:41:19.051Z,16.00
2023-02-23T11:43:57.502Z,16.00
2023-02-23T11:46:26.177Z,15.90
2023-02-23T11:48:59.849Z,16.00
2023-02-23T11:51:31.801Z,16.00
2023-02-23T11:54:00.012Z,16.10
2023-02-23T11:56:29.088Z,16.00
2023-02-23T11:58:59.955Z,15.80
2023-02-23T12:01:44.532Z,15.50
2023-02-23T12:04:30.958Z,15.60
2023-02-23T12:07:54.746Z,15.50
2023-02-23T12:10:33.478Z,15.60
2023-02-23T12:13:31.618Z,15.40
2023-02-23T12:16:29.543Z,15.40
2023-02-23T12:19:24.514Z,15.40
2023-02-23T12:22:15.246Z,15.40
2023-02-23T12:25:02.868Z,15.50
2023-02-23T12:27:37.979Z,15.60
2023-02-23T12:30:12.214Z,15.80
2023-02-23T12:32:57.902Z,15.80
2023-02-23T12:35:49.691Z,15.60
2023-02-23T12:38:38.036Z,15.40
2023-02-23T12:41:14.135Z,15.50
2023-02-23T12:43:54.020Z,15.80
2023-02-23T12:46:40.529Z,16.00
2023-02-23T12:49:19.215Z,16.30
2023-02-23T12:52:14.861Z,16.60
2023-02-23T12:54:43.916Z,16.20
2023-02-23T12:57:20.224Z,16.40
2023-02-23T13:00:24.749Z,16.60
2023-02-23T13:03:10.778Z,16.80
2023-02-23T13:05:43.889Z,16.90
2023-02-23T13:08:26.943Z,16.70
2023-02-23T13:11:02.421Z,16.70
2023-02-23T13:13:36.289Z,16.40
2023-02-23T13:16:18.392Z,16.50
2023-02-23T13:19:24.054Z,16.60
2023-02-23T13:22:21.132Z,16.60
2023-02-23T13:24:51.647Z,16.60
2023-02-23T13:27:26.910Z,16.70
2023-02-23T13:29:55.266Z,16.60
2023-02-23T13:32:25.370Z,16.30
2023-02-23T13:34:58.010Z,16.40
2023-02-23T13:37:32.172Z,16.40
2023-02-23T13:40:07.725Z,16.50
2023-02-23T13:42:40.791Z,16.70
2023-02-23T13:45:26.216Z,16.90
2023-02-23T13:48:56.126Z,17.20
2023-02-23T13:51:30.719Z,17.30
2023-02-23T13:54:13.882Z,17.40
2023-02-23T13:57:02.034Z,17.40
2023-02-23T13:59:41.286Z,17.30
2023-02-23T14:02:41.077Z,17.40
2023-02-23T14:05:24.901Z,17.30
2023-02-23T14:07:56.002Z,17.30
2023-02-23T14:10:47.906Z,17.20
2023-02-23T14:13:15.778Z,17.30
2023-02-23T14:15:46.193Z,17.40
2023-02-23T14:18:19.293Z,17.60
2023-02-23T14:21:05.078Z,17.60
2023-02-23T14:23:56.446Z,17.70
2023-02-23T14:26:29.071Z,17.70
2023-02-23T14:29:14.505Z,17.60
2023-02-23T14:31:58.021Z,17.60
2023-02-23T14:34:49.117Z,17.60
2023-02-23T14:37:40.983Z,17.50
2023-02-23T14:40:18.111Z,17.40
2023-02-23T14:42:51.832Z,17.40
2023-02-23T14:45:38.762Z,17.30
2023-02-23T14:48:12.800Z,17.10
2023-02-23T14:50:41.409Z,17.10
2023-02-23T14:53:19.661Z,17.00
2023-02-23T14:55:46.498Z,17.00
2023-02-23T14:58:23.921Z,16.90
2023-02-23T15:00:52.021Z,16.90
2023-02-23T15:03:19.061Z,16.90
2023-02-23T15:05:55.155Z,16.80
2023-02-23T15:08:24.507Z,16.80
2023-02-23T15:11:04.443Z,16.90
2023-02-23T15:13:34.254Z,16.80
2023-02-23T15:16:12.768Z,16.90
2023-02-23T15:18:41.757Z,16.90
2023-02-23T15:21:12.515Z,16.90
2023-02-23T15:23:40.022Z,16.80
2023-02-23T15:26:27.153Z,16.70
2023-02-23T15:28:54.061Z,16.60
2023-02-23T15:31:21.132Z,16.60
2023-02-23T15:33:50.728Z,16.50
2023-02-23T15:36:39.091Z,16.50
2023-02-23T15:39:12.130Z,16.30
2023-02-23T15:41:40.056Z,16.30
2023-02-23T15:44:10.152Z,16.20
2023-02-23T15:46:37.820Z,16.10
2023-02-23T15:49:06.934Z,16.10
2023-02-23T15:51:38.215Z,16.10
2023-02-23T15:54:19.540Z,16.10
2023-02-23T15:56:49.964Z,16.10
2023-02-23T15:59:37.019Z,16.00
2023-02-23T16:02:17.920Z,16.00
2023-02-23T16:04:48.953Z,15.90
2023-02-23T16:07:15.626Z,15.90
2023-02-23T16:09:55.778Z,15.80
2023-02-23T16:12:32.713Z,15.80
2023-02-23T16:15:24.628Z,15.80
2023-02-23T16:18:01.116Z,15.70
2023-02-23T16:20:43.753Z,15.70
2023-02-23T16:23:33.374Z,15.70
2023-02-23T16:26:10.207Z,15.70
2023-02-23T16:28:42.749Z,15.60
2023-02-23T16:31:13.404Z,15.60
2023-02-23T16:33:45.418Z,15.50
2023-02-23T16:36:13.306Z,15.50
2023-02-23T16:38:39.994Z,15.50
2023-02-23T16:41:18.207Z,15.50
2023-02-23T16:43:48.452Z,15.40
2023-02-23T16:46:19.982Z,15.40
2023-02-23T16:48:46.929Z,15.30
2023-02-23T16:51:18.842Z,15.40
2023-02-23T16:53:46.369Z,15.30
2023-02-23T16:56:17.501Z,15.20
2023-02-23T16:58:48.301Z,15.20
2023-02-23T17:01:18.064Z,15.10
2023-02-23T17:03:52.735Z,15.20
2023-02-23T17:06:21.156Z,15.10
2023-02-23T17:08:57.376Z,15.10
2023-02-23T17:11:24.870Z,15.10
2023-02-23T17:13:51.526Z,15.10
2023-02-23T17:16:18.593Z,15.00
2023-02-23T17:18:46.780Z,15.00
2023-02-23T17:21:14.827Z,15.00
2023-02-23T17:23:51.284Z,14.90
2023-02-23T17:26:21.235Z,14.80
2023-02-23T17:28:48.611Z,14.80
2023-02-23T17:31:18.026Z,14.80
2023-02-23T17:33:46.148Z,14.80
2023-02-23T17:36:15.456Z,14.80
2023-02-23T17:38:44.757Z,14.70
2023-02-23T17:41:21.161Z,14.70
2023-02-23T17:43:48.138Z,14.70
2023-02-23T17:46:14.988Z,14.60
2023-02-23T17:48:44.738Z,14.60
2023-02-23T17:51:13.091Z,14.60
2023-02-23T17:53:40.433Z,14.60
2023-02-23T17:56:07.696Z,14.50
2023-02-23T17:58:34.680Z,14.50
2023-02-23T18:01:03.568Z,14.50
2023-02-23T18:03:33.294Z,14.50
2023-02-23T18:06:06.073Z,14.50
2023-02-23T18:08:33.647Z,14.50
2023-02-23T18:11:00.405Z,14.40
2023-02-23T18:13:29.016Z,14.40
2023-02-23T18:16:00.285Z,14.40
2023-02-23T18:18:28.963Z,14.40
2023-02-23T18:20:58.853Z,14.30
2023-02-23T18:23:28.825Z,14.30
2023-02-23T18:25:55.651Z,14.30
2023-02-23T18:28:22.481Z,14.30
2023-02-23T18:30:49.245Z,14.30
2023-02-23T18:33:15.990Z,14.30
2023-02-23T18:35:45.091Z,14.40
2023-02-23T18:38:13.965Z,14.40
2023-02-23T18:40:41.673Z,14.30
2023-02-23T18:43:09.031Z,14.30
2023-02-23T18:45:35.715Z,14.30
2023-02-23T18:48:02.663Z,14.30
2023-02-23T18:50:30.268Z,14.30
2023-02-23T18:52:58.956Z,14.30
2023-02-23T18:55:25.720Z,14.30
2023-02-23T18:57:55.383Z,14.30
2023-02-23T19:00:22.709Z,14.30
2023-02-23T19:02:49.645Z,14.20
2023-02-23T19:05:18.483Z,14.20
2023-02-23T19:07:46.345Z,14.20
2023-02-23T19:10:14.997Z,14.20
2023-02-23T19:12:42.276Z,14.20
2023-02-23T19:15:09.826Z,14.10
2023-02-23T19:17:36.707Z,14.10
2023-02-23T19:20:08.114Z,14.10
2023-02-23T19:22:35.242Z,14.10
2023-02-23T19:25:02.504Z,14.10
2023-02-23T19:27:29.348Z,14.10
2023-02-23T19:29:56.072Z,14.10
2023-02-23T19:32:22.900Z,14.10
2023-02-23T19:34:49.823Z,14.10
2023-02-23T19:37:16.483Z,14.10
2023-02-23T19:39:44.882Z,14.10
2023-02-23T19:42:15.717Z,14.00
2023-02-23T19:44:43.148Z,14.00
2023-02-23T19:47:09.946Z,14.00
2023-02-23T19:49:36.828Z,14.00
2023-02-23T19:52:03.630Z,14.00
2023-02-23T19:54:34.001Z,14.00
2023-02-23T19:57:00.805Z,14.00
2023-02-23T19:59:28.621Z,13.90
2023-02-23T20:01:55.462Z,13.80
2023-02-23T20:04:22.644Z,13.90
2023-02-23T20:06:49.343Z,13.90
2023-02-23T20:09:16.043Z,13.90
2023-02-23T20:11:42.803Z,13.80
2023-02-23T20:14:09.937Z,13.80
2023-02-23T20:16:36.855Z,13.70
2023-02-23T20:19:06.430Z,13.70
2023-02-23T20:21:33.788Z,13.70
2023-02-23T20:24:05.515Z,13.70
2023-02-23T20:26:35.426Z,13.70
2023-02-23T20:29:04.723Z,13.60
2023-02-23T20:31:35.066Z,13.60
2023-02-23T20:34:04.614Z,13.60
2023-02-23T20:36:32.277Z,13.60
2023-02-23T20:38:59.029Z,13.50
2023-02-23T20:41:28.062Z,13.50
2023-02-23T20:43:56.099Z,13.40
2023-02-23T20:46:23.025Z,13.20
2023-02-23T20:48:49.872Z,13.40
2023-02-23T20:51:19.086Z,13.30
2023-02-23T20:53:48.130Z,13.40
2023-02-23T20:56:17.457Z,13.40
2023-02-23T20:58:45.205Z,13.40
2023-02-23T21:01:27.203Z,13.30
2023-02-23T21:04:00.427Z,13.30
2023-02-23T21:06:28.966Z,13.30
2023-02-23T21:08:56.309Z,13.20
2023-02-23T21:11:25.356Z,13.20
2023-02-23T21:13:52.781Z,13.20
2023-02-23T21:16:20.614Z,13.30
2023-02-23T21:18:54.096Z,13.20
2023-02-23T21:21:21.358Z,13.30
2023-02-23T21:23:49.233Z,13.30
2023-02-23T21:26:17.035Z,13.30
2023-02-23T21:28:45.534Z,13.20
2023-02-23T21:31:14.806Z,13.20
2023-02-23T21:33:43.374Z,13.10
2023-02-23T21:36:11.117Z,13.10
2023-02-23T21:38:38.864Z,13.10
2023-02-23T21:41:06.196Z,13.10
2023-02-23T21:43:38.230Z,13.00
2023-02-23T21:46:14.179Z,13.00
2023-02-23T21:48:42.543Z,13.00
2023-02-23T21:51:12.559Z,12.90
2023-02-23T21:53:40.358Z,12.90
2023-02-23T21:56:15.911Z,12.90
2023-02-23T21:58:50.737Z,12.90
2023-02-23T22:01:20.748Z,12.80
2023-02-23T22:03:48.848Z,12.80
2023-02-23T22:06:18.356Z,12.80
2023-02-23T22:08:50.263Z,12.80
2023-02-23T22:11:21.187Z,12.80
2023-02-23T22:13:50.064Z,12.80
2023-02-23T22:16:19.491Z,12.80
2023-02-23T22:18:46.729Z,12.70
2023-02-23T22:21:13.967Z,12.70
2023-02-23T22:23:43.995Z,12.80
2023-02-23T22:26:11.122Z,12.80
2023-02-23T22:28:38.040Z,12.80
2023-02-23T22:31:11.019Z,12.80
2023-02-23T22:33:41.425Z,12.80
2023-02-23T22:36:10.545Z,12.60
2023-02-23T22:38:37.951Z,12.60
2023-02-23T22:41:11.807Z,12.70
2023-02-23T22:43:46.375Z,12.70
2023-02-23T22:46:14.912Z,12.60
2023-02-23T22:48:44.957Z,12.60
2023-02-23T22:51:13.719Z,12.60
2023-02-23T22:53:40.781Z,12.50
2023-02-23T22:56:08.504Z,12.50
2023-02-23T22:58:36.130Z,12.50
2023-02-23T23:01:06.071Z,12.50
2023-02-23T23:03:37.287Z,12.60
2023-02-23T23:06:06.265Z,12.60
2023-02-23T23:08:38.747Z,12.50
2023-02-23T23:11:13.738Z,12.50
2023-02-23T23:13:46.486Z,12.50
2023-02-23T23:16:30.286Z,12.40
2023-02-23T23:19:04.328Z,12.40
2023-02-23T23:21:34.142Z,12.40
2023-02-23T23:24:06.559Z,12.50
2023-02-23T23:26:35.784Z,12.50
2023-02-23T23:29:07.481Z,12.40
2023-02-23T23:31:35.598Z,12.30
2023-02-23T23:34:09.279Z,12.30
2023-02-23T23:36:46.432Z,12.40
2023-02-23T23:39:16.324Z,12.40
2023-02-23T23:41:44.358Z,12.50
2023-02-23T23:44:13.115Z,12.50
2023-02-23T23:46:45.144Z,12.50
2023-02-23T23:49:20.444Z,12.40
2023-02-23T23:51:50.564Z,12.50
2023-02-23T23:54:23.636Z,12.40
2023-02-23T23:56:50.719Z,12.40
2023-02-23T23:59:20.594Z,12.30
